sensor_id;sensor_type;location;lat;lon;timestamp;temperature;humidity
55830;DHT22;41759;53.330;6.002;2024-03-29T00:00:46;8.90;99.90
55830;DHT22;41759;53.330;6.002;2024-03-29T00:03:11;8.90;99.90
55830;DHT22;41759;53.330;6.002;2024-03-29T00:05:37;8.80;99.90
55830;DHT22;41759;53.330;6.002;2024-03-29T00:08:03;8.80;99.90
55830;DHT22;41759;53.330;6.002;2024-03-29T00:10:29;8.80;99.90
55830;DHT22;41759;53.330;6.002;2024-03-29T00:12:55;8.70;99.90
55830;DHT22;41759;53.330;6.002;2024-03-29T00:15:21;8.70;99.90
55830;DHT22;41759;53.330;6.002;2024-03-29T00:17:46;8.60;99.90
55830;DHT22;41759;53.330;6.002;2024-03-29T00:20:12;9.00;99.90
55830;DHT22;41759;53.330;6.002;2024-03-29T00:22:38;8.70;99.90
55830;DHT22;41759;53.330;6.002;2024-03-29T00:25:04;8.70;99.90
55830;DHT22;41759;53.330;6.002;2024-03-29T00:27:30;8.70;99.90
55830;DHT22;41759;53.330;6.002;2024-03-29T00:29:56;8.70;99.90
55830;DHT22;41759;53.330;6.002;2024-03-29T00:32:22;8.80;99.90
55830;DHT22;41759;53.330;6.002;2024-03-29T00:34:50;9.10;99.90
55830;DHT22;41759;53.330;6.002;2024-03-29T00:37:16;8.90;99.90
55830;DHT22;41759;53.330;6.002;2024-03-29T00:39:42;8.90;99.90
55830;DHT22;41759;53.330;6.002;2024-03-29T00:45:56;8.90;99.90
55830;DHT22;41759;53.330;6.002;2024-03-29T00:48:22;9.80;99.90
55830;DHT22;41759;53.330;6.002;2024-03-29T00:50:48;8.90;99.90
55830;DHT22;41759;53.330;6.002;2024-03-29T00:53:13;8.90;99.90
55830;DHT22;41759;53.330;6.002;2024-03-29T00:55:39;9.10;99.90
55830;DHT22;41759;53.330;6.002;2024-03-29T00:58:04;8.90;99.90
55830;DHT22;41759;53.330;6.002;2024-03-29T01:00:30;8.90;99.90
55830;DHT22;41759;53.330;6.002;2024-03-29T01:02:56;9.00;99.90
55830;DHT22;41759;53.330;6.002;2024-03-29T01:05:23;8.90;99.90
55830;DHT22;41759;53.330;6.002;2024-03-29T01:07:49;8.90;99.90
55830;DHT22;41759;53.330;6.002;2024-03-29T01:10:14;8.90;99.90
55830;DHT22;41759;53.330;6.002;2024-03-29T01:12:40;9.00;99.90
55830;DHT22;41759;53.330;6.002;2024-03-29T01:15:06;8.90;99.90
55830;DHT22;41759;53.330;6.002;2024-03-29T01:17:32;8.90;99.90
55830;DHT22;41759;53.330;6.002;2024-03-29T01:19:58;8.90;99.90
55830;DHT22;41759;53.330;6.002;2024-03-29T01:22:23;8.90;99.90
55830;DHT22;41759;53.330;6.002;2024-03-29T01:24:49;8.90;99.90
55830;DHT22;41759;53.330;6.002;2024-03-29T01:27:14;8.90;99.90
55830;DHT22;41759;53.330;6.002;2024-03-29T01:29:40;8.20;99.90
55830;DHT22;41759;53.330;6.002;2024-03-29T01:32:06;8.90;99.90
55830;DHT22;41759;53.330;6.002;2024-03-29T01:34:32;8.80;99.90
55830;DHT22;41759;53.330;6.002;2024-03-29T01:36:58;8.80;99.90
55830;DHT22;41759;53.330;6.002;2024-03-29T01:39:24;8.80;99.90
55830;DHT22;41759;53.330;6.002;2024-03-29T01:41:54;8.80;99.90
55830;DHT22;41759;53.330;6.002;2024-03-29T01:44:20;8.80;99.90
55830;DHT22;41759;53.330;6.002;2024-03-29T01:46:46;8.80;99.90
55830;DHT22;41759;53.330;6.002;2024-03-29T01:49:13;8.80;99.90
55830;DHT22;41759;53.330;6.002;2024-03-29T01:51:39;8.80;99.90
55830;DHT22;41759;53.330;6.002;2024-03-29T01:54:06;8.80;99.90
55830;DHT22;41759;53.330;6.002;2024-03-29T01:56:35;8.80;99.90
55830;DHT22;41759;53.330;6.002;2024-03-29T01:59:03;8.70;99.90
55830;DHT22;41759;53.330;6.002;2024-03-29T02:01:30;8.70;99.90
55830;DHT22;41759;53.330;6.002;2024-03-29T02:03:56;8.60;99.90
55830;DHT22;41759;53.330;6.002;2024-03-29T02:06:22;8.60;99.90
55830;DHT22;41759;53.330;6.002;2024-03-29T02:08:57;8.60;99.90
55830;DHT22;41759;53.330;6.002;2024-03-29T02:11:23;10.00;99.90
55830;DHT22;41759;53.330;6.002;2024-03-29T02:13:49;8.50;99.90
55830;DHT22;41759;53.330;6.002;2024-03-29T02:16:16;8.50;99.90
55830;DHT22;41759;53.330;6.002;2024-03-29T02:18:41;8.40;99.90
55830;DHT22;41759;53.330;6.002;2024-03-29T02:21:07;8.40;99.90
55830;DHT22;41759;53.330;6.002;2024-03-29T02:23:36;8.40;99.90
55830;DHT22;41759;53.330;6.002;2024-03-29T02:26:03;8.40;99.90
55830;DHT22;41759;53.330;6.002;2024-03-29T02:28:30;8.40;99.90
55830;DHT22;41759;53.330;6.002;2024-03-29T02:30:56;8.40;99.90
55830;DHT22;41759;53.330;6.002;2024-03-29T02:33:21;8.40;99.90
55830;DHT22;41759;53.330;6.002;2024-03-29T02:35:48;8.30;99.90
55830;DHT22;41759;53.330;6.002;2024-03-29T02:38:13;8.30;99.90
55830;DHT22;41759;53.330;6.002;2024-03-29T02:40:39;8.30;99.90
55830;DHT22;41759;53.330;6.002;2024-03-29T02:43:05;8.20;99.90
55830;DHT22;41759;53.330;6.002;2024-03-29T02:45:31;8.20;99.90
55830;DHT22;41759;53.330;6.002;2024-03-29T02:47:56;8.30;99.90
55830;DHT22;41759;53.330;6.002;2024-03-29T02:50:22;8.10;99.90
55830;DHT22;41759;53.330;6.002;2024-03-29T02:52:48;8.10;99.90
55830;DHT22;41759;53.330;6.002;2024-03-29T02:55:13;8.00;99.90
55830;DHT22;41759;53.330;6.002;2024-03-29T02:57:39;8.00;99.90
55830;DHT22;41759;53.330;6.002;2024-03-29T03:00:06;8.30;99.90
55830;DHT22;41759;53.330;6.002;2024-03-29T03:02:32;8.00;99.90
55830;DHT22;41759;53.330;6.002;2024-03-29T03:04:58;8.00;99.90
55830;DHT22;41759;53.330;6.002;2024-03-29T03:07:26;8.00;99.90
55830;DHT22;41759;53.330;6.002;2024-03-29T03:10:10;8.10;99.90
55830;DHT22;41759;53.330;6.002;2024-03-29T03:12:54;8.10;99.90
55830;DHT22;41759;53.330;6.002;2024-03-29T03:15:20;8.20;99.90
55830;DHT22;41759;53.330;6.002;2024-03-29T03:17:45;8.20;99.90
55830;DHT22;41759;53.330;6.002;2024-03-29T03:20:11;8.20;99.90
55830;DHT22;41759;53.330;6.002;2024-03-29T03:22:39;8.50;99.90
55830;DHT22;41759;53.330;6.002;2024-03-29T03:25:05;8.30;99.90
55830;DHT22;41759;53.330;6.002;2024-03-29T03:27:31;8.30;99.90
55830;DHT22;41759;53.330;6.002;2024-03-29T03:29:56;8.40;99.90
55830;DHT22;41759;53.330;6.002;2024-03-29T03:32:22;8.40;99.90
55830;DHT22;41759;53.330;6.002;2024-03-29T03:34:48;8.40;99.90
55830;DHT22;41759;53.330;6.002;2024-03-29T03:37:13;8.60;99.90
55830;DHT22;41759;53.330;6.002;2024-03-29T03:39:39;8.50;99.90
55830;DHT22;41759;53.330;6.002;2024-03-29T03:42:05;8.50;99.90
55830;DHT22;41759;53.330;6.002;2024-03-29T03:44:31;8.50;99.90
55830;DHT22;41759;53.330;6.002;2024-03-29T03:46:56;8.60;99.90
55830;DHT22;41759;53.330;6.002;2024-03-29T03:49:22;8.50;99.90
55830;DHT22;41759;53.330;6.002;2024-03-29T03:51:48;8.60;99.90
55830;DHT22;41759;53.330;6.002;2024-03-29T03:54:13;8.50;99.90
55830;DHT22;41759;53.330;6.002;2024-03-29T03:56:39;8.60;99.90
55830;DHT22;41759;53.330;6.002;2024-03-29T03:59:05;8.60;99.90
55830;DHT22;41759;53.330;6.002;2024-03-29T04:01:30;8.90;99.90
55830;DHT22;41759;53.330;6.002;2024-03-29T04:03:56;8.50;99.90
55830;DHT22;41759;53.330;6.002;2024-03-29T04:06:22;8.60;99.90
55830;DHT22;41759;53.330;6.002;2024-03-29T04:08:47;8.60;99.90
55830;DHT22;41759;53.330;6.002;2024-03-29T04:11:13;8.60;99.90
55830;DHT22;41759;53.330;6.002;2024-03-29T04:13:39;8.60;99.90
55830;DHT22;41759;53.330;6.002;2024-03-29T04:16:06;8.60;99.90
55830;DHT22;41759;53.330;6.002;2024-03-29T04:18:33;8.60;99.90
55830;DHT22;41759;53.330;6.002;2024-03-29T04:21:03;8.60;99.90
55830;DHT22;41759;53.330;6.002;2024-03-29T04:23:29;8.50;99.90
55830;DHT22;41759;53.330;6.002;2024-03-29T04:25:56;7.00;99.90
55830;DHT22;41759;53.330;6.002;2024-03-29T04:28:22;8.50;99.90
55830;DHT22;41759;53.330;6.002;2024-03-29T04:30:58;8.50;99.90
55830;DHT22;41759;53.330;6.002;2024-03-29T04:33:25;8.40;99.90
55830;DHT22;41759;53.330;6.002;2024-03-29T04:35:58;8.50;99.90
55830;DHT22;41759;53.330;6.002;2024-03-29T04:38:26;8.40;99.90
55830;DHT22;41759;53.330;6.002;2024-03-29T04:40:54;8.40;99.90
55830;DHT22;41759;53.330;6.002;2024-03-29T04:43:24;8.40;99.90
55830;DHT22;41759;53.330;6.002;2024-03-29T04:45:50;8.50;99.90
55830;DHT22;41759;53.330;6.002;2024-03-29T04:48:15;8.40;99.90
55830;DHT22;41759;53.330;6.002;2024-03-29T04:50:41;8.40;99.90
55830;DHT22;41759;53.330;6.002;2024-03-29T04:53:10;8.40;99.90
55830;DHT22;41759;53.330;6.002;2024-03-29T04:55:36;8.40;99.90
55830;DHT22;41759;53.330;6.002;2024-03-29T04:58:02;8.40;99.90
55830;DHT22;41759;53.330;6.002;2024-03-29T05:00:28;8.40;99.90
55830;DHT22;41759;53.330;6.002;2024-03-29T05:02:54;9.00;99.90
55830;DHT22;41759;53.330;6.002;2024-03-29T05:05:19;8.40;99.90
55830;DHT22;41759;53.330;6.002;2024-03-29T05:07:45;8.40;99.90
55830;DHT22;41759;53.330;6.002;2024-03-29T05:10:11;8.40;99.90
55830;DHT22;41759;53.330;6.002;2024-03-29T05:12:37;8.50;99.90
55830;DHT22;41759;53.330;6.002;2024-03-29T05:15:04;8.40;99.90
55830;DHT22;41759;53.330;6.002;2024-03-29T05:17:30;8.40;99.90
55830;DHT22;41759;53.330;6.002;2024-03-29T05:19:55;8.60;99.90
55830;DHT22;41759;53.330;6.002;2024-03-29T05:22:21;8.50;99.90
55830;DHT22;41759;53.330;6.002;2024-03-29T05:24:47;8.60;99.90
55830;DHT22;41759;53.330;6.002;2024-03-29T05:27:13;8.50;99.90
55830;DHT22;41759;53.330;6.002;2024-03-29T05:29:39;8.70;99.90
55830;DHT22;41759;53.330;6.002;2024-03-29T05:32:06;8.50;99.90
55830;DHT22;41759;53.330;6.002;2024-03-29T05:34:32;8.50;99.90
55830;DHT22;41759;53.330;6.002;2024-03-29T05:36:57;8.50;99.90
55830;DHT22;41759;53.330;6.002;2024-03-29T05:39:23;8.50;99.90
55830;DHT22;41759;53.330;6.002;2024-03-29T05:41:49;8.50;99.90
55830;DHT22;41759;53.330;6.002;2024-03-29T05:44:15;8.50;99.90
55830;DHT22;41759;53.330;6.002;2024-03-29T05:46:40;8.50;99.90
55830;DHT22;41759;53.330;6.002;2024-03-29T05:49:06;8.50;99.90
55830;DHT22;41759;53.330;6.002;2024-03-29T05:51:33;8.50;99.90
55830;DHT22;41759;53.330;6.002;2024-03-29T05:54:01;8.50;99.90
55830;DHT22;41759;53.330;6.002;2024-03-29T05:56:29;8.50;99.90
55830;DHT22;41759;53.330;6.002;2024-03-29T05:58:55;8.50;99.90
55830;DHT22;41759;53.330;6.002;2024-03-29T06:01:21;8.50;99.90
55830;DHT22;41759;53.330;6.002;2024-03-29T06:03:48;8.50;99.90
55830;DHT22;41759;53.330;6.002;2024-03-29T06:06:17;8.60;99.90
55830;DHT22;41759;53.330;6.002;2024-03-29T06:08:44;8.60;99.90
55830;DHT22;41759;53.330;6.002;2024-03-29T06:11:09;8.50;99.90
55830;DHT22;41759;53.330;6.002;2024-03-29T06:13:35;8.70;99.90
55830;DHT22;41759;53.330;6.002;2024-03-29T06:16:25;8.60;99.90
55830;DHT22;41759;53.330;6.002;2024-03-29T06:19:10;8.70;99.90
55830;DHT22;41759;53.330;6.002;2024-03-29T06:21:36;8.60;99.90
55830;DHT22;41759;53.330;6.002;2024-03-29T06:24:12;8.60;99.90
55830;DHT22;41759;53.330;6.002;2024-03-29T06:26:41;8.60;99.90
55830;DHT22;41759;53.330;6.002;2024-03-29T06:29:08;8.60;99.90
55830;DHT22;41759;53.330;6.002;2024-03-29T06:31:36;8.70;99.90
55830;DHT22;41759;53.330;6.002;2024-03-29T06:34:02;8.70;99.90
55830;DHT22;41759;53.330;6.002;2024-03-29T06:36:28;8.70;99.90
55830;DHT22;41759;53.330;6.002;2024-03-29T06:38:55;8.80;99.90
55830;DHT22;41759;53.330;6.002;2024-03-29T06:41:21;8.80;99.90
55830;DHT22;41759;53.330;6.002;2024-03-29T06:43:47;8.90;99.90
55830;DHT22;41759;53.330;6.002;2024-03-29T06:46:13;8.90;99.90
55830;DHT22;41759;53.330;6.002;2024-03-29T06:48:39;8.90;99.90
55830;DHT22;41759;53.330;6.002;2024-03-29T06:51:05;9.00;99.90
55830;DHT22;41759;53.330;6.002;2024-03-29T06:53:31;9.00;99.90
55830;DHT22;41759;53.330;6.002;2024-03-29T06:55:57;9.10;99.90
55830;DHT22;41759;53.330;6.002;2024-03-29T06:58:23;9.10;99.90
55830;DHT22;41759;53.330;6.002;2024-03-29T07:00:49;9.20;99.90
55830;DHT22;41759;53.330;6.002;2024-03-29T07:03:16;9.90;99.90
55830;DHT22;41759;53.330;6.002;2024-03-29T07:05:42;9.30;99.90
55830;DHT22;41759;53.330;6.002;2024-03-29T07:08:08;9.30;99.90
55830;DHT22;41759;53.330;6.002;2024-03-29T07:10:33;9.30;99.90
55830;DHT22;41759;53.330;6.002;2024-03-29T07:12:59;9.40;99.90
55830;DHT22;41759;53.330;6.002;2024-03-29T07:15:25;9.40;99.90
55830;DHT22;41759;53.330;6.002;2024-03-29T07:17:51;9.40;99.90
55830;DHT22;41759;53.330;6.002;2024-03-29T07:20:18;9.40;99.90
55830;DHT22;41759;53.330;6.002;2024-03-29T07:22:43;9.50;99.90
55830;DHT22;41759;53.330;6.002;2024-03-29T07:25:10;9.60;99.90
55830;DHT22;41759;53.330;6.002;2024-03-29T07:27:36;9.70;99.90
55830;DHT22;41759;53.330;6.002;2024-03-29T07:30:06;9.70;99.90
55830;DHT22;41759;53.330;6.002;2024-03-29T07:32:33;9.80;99.90
55830;DHT22;41759;53.330;6.002;2024-03-29T07:34:59;9.90;99.90
55830;DHT22;41759;53.330;6.002;2024-03-29T07:37:25;10.00;99.90
55830;DHT22;41759;53.330;6.002;2024-03-29T07:39:51;10.10;99.90
55830;DHT22;41759;53.330;6.002;2024-03-29T07:42:17;10.20;99.90
55830;DHT22;41759;53.330;6.002;2024-03-29T07:44:43;10.40;99.90
55830;DHT22;41759;53.330;6.002;2024-03-29T07:47:08;10.40;99.90
55830;DHT22;41759;53.330;6.002;2024-03-29T07:49:34;10.50;99.90
55830;DHT22;41759;53.330;6.002;2024-03-29T07:52:02;10.50;99.90
55830;DHT22;41759;53.330;6.002;2024-03-29T07:54:33;10.50;99.90
55830;DHT22;41759;53.330;6.002;2024-03-29T07:56:59;10.50;99.90
55830;DHT22;41759;53.330;6.002;2024-03-29T07:59:25;11.20;99.90
55830;DHT22;41759;53.330;6.002;2024-03-29T08:01:50;10.40;99.90
55830;DHT22;41759;53.330;6.002;2024-03-29T08:04:18;10.40;99.90
55830;DHT22;41759;53.330;6.002;2024-03-29T08:06:43;10.30;99.90
55830;DHT22;41759;53.330;6.002;2024-03-29T08:09:09;10.30;99.90
55830;DHT22;41759;53.330;6.002;2024-03-29T08:11:35;10.30;99.90
55830;DHT22;41759;53.330;6.002;2024-03-29T08:14:01;10.30;99.90
55830;DHT22;41759;53.330;6.002;2024-03-29T08:16:27;10.40;99.90
55830;DHT22;41759;53.330;6.002;2024-03-29T08:18:53;10.40;99.90
55830;DHT22;41759;53.330;6.002;2024-03-29T08:21:19;10.50;99.90
55830;DHT22;41759;53.330;6.002;2024-03-29T08:23:44;10.80;99.90
55830;DHT22;41759;53.330;6.002;2024-03-29T08:26:12;11.00;99.90
55830;DHT22;41759;53.330;6.002;2024-03-29T08:28:38;11.30;99.90
55830;DHT22;41759;53.330;6.002;2024-03-29T08:31:07;11.70;99.90
55830;DHT22;41759;53.330;6.002;2024-03-29T08:33:35;12.20;99.90
55830;DHT22;41759;53.330;6.002;2024-03-29T08:36:04;11.50;99.90
55830;DHT22;41759;53.330;6.002;2024-03-29T08:38:30;12.70;99.90
55830;DHT22;41759;53.330;6.002;2024-03-29T08:40:56;13.00;99.90
55830;DHT22;41759;53.330;6.002;2024-03-29T08:43:22;13.90;99.90
55830;DHT22;41759;53.330;6.002;2024-03-29T08:45:48;14.80;99.90
55830;DHT22;41759;53.330;6.002;2024-03-29T08:48:14;15.20;99.90
55830;DHT22;41759;53.330;6.002;2024-03-29T08:50:40;15.50;99.90
55830;DHT22;41759;53.330;6.002;2024-03-29T08:53:06;15.60;99.90
55830;DHT22;41759;53.330;6.002;2024-03-29T08:55:33;15.50;99.90
55830;DHT22;41759;53.330;6.002;2024-03-29T08:57:59;15.40;99.90
55830;DHT22;41759;53.330;6.002;2024-03-29T09:00:30;15.40;99.90
55830;DHT22;41759;53.330;6.002;2024-03-29T09:02:56;15.50;99.90
55830;DHT22;41759;53.330;6.002;2024-03-29T09:05:22;15.60;99.90
55830;DHT22;41759;53.330;6.002;2024-03-29T09:07:48;16.90;99.90
55830;DHT22;41759;53.330;6.002;2024-03-29T09:10:14;17.50;99.90
55830;DHT22;41759;53.330;6.002;2024-03-29T09:12:40;18.00;99.90
55830;DHT22;41759;53.330;6.002;2024-03-29T09:15:06;18.30;99.90
55830;DHT22;41759;53.330;6.002;2024-03-29T09:17:36;18.70;99.90
55830;DHT22;41759;53.330;6.002;2024-03-29T09:20:01;19.00;98.00
55830;DHT22;41759;53.330;6.002;2024-03-29T09:22:30;18.80;93.80
55830;DHT22;41759;53.330;6.002;2024-03-29T09:24:55;18.50;82.50
55830;DHT22;41759;53.330;6.002;2024-03-29T09:27:21;18.30;93.40
55830;DHT22;41759;53.330;6.002;2024-03-29T09:29:50;18.00;96.40
55830;DHT22;41759;53.330;6.002;2024-03-29T09:32:15;17.70;96.10
55830;DHT22;41759;53.330;6.002;2024-03-29T09:34:43;17.70;99.90
55830;DHT22;41759;53.330;6.002;2024-03-29T09:37:10;17.90;99.90
55830;DHT22;41759;53.330;6.002;2024-03-29T09:39:35;18.30;99.90
55830;DHT22;41759;53.330;6.002;2024-03-29T09:42:02;18.40;99.80
55830;DHT22;41759;53.330;6.002;2024-03-29T09:44:33;18.50;98.20
55830;DHT22;41759;53.330;6.002;2024-03-29T09:47:04;18.60;97.90
55830;DHT22;41759;53.330;6.002;2024-03-29T09:49:32;18.90;96.80
55830;DHT22;41759;53.330;6.002;2024-03-29T09:52:01;19.10;95.80
55830;DHT22;41759;53.330;6.002;2024-03-29T09:54:30;19.40;95.10
55830;DHT22;41759;53.330;6.002;2024-03-29T09:56:59;19.60;83.50
55830;DHT22;41759;53.330;6.002;2024-03-29T09:59:25;19.50;92.60
55830;DHT22;41759;53.330;6.002;2024-03-29T10:01:54;19.30;94.40
55830;DHT22;41759;53.330;6.002;2024-03-29T10:04:22;19.40;94.10
55830;DHT22;41759;53.330;6.002;2024-03-29T10:06:49;18.90;94.70
55830;DHT22;41759;53.330;6.002;2024-03-29T10:09:20;18.10;95.80
55830;DHT22;41759;53.330;6.002;2024-03-29T10:11:47;17.30;99.70
55830;DHT22;41759;53.330;6.002;2024-03-29T10:14:13;16.90;99.90
55830;DHT22;41759;53.330;6.002;2024-03-29T10:16:39;16.40;99.90
55830;DHT22;41759;53.330;6.002;2024-03-29T10:19:05;15.80;99.90
55830;DHT22;41759;53.330;6.002;2024-03-29T10:21:32;15.40;99.90
55830;DHT22;41759;53.330;6.002;2024-03-29T10:23:59;15.50;99.90
55830;DHT22;41759;53.330;6.002;2024-03-29T10:26:24;15.90;99.90
55830;DHT22;41759;53.330;6.002;2024-03-29T10:28:50;16.00;99.90
55830;DHT22;41759;53.330;6.002;2024-03-29T10:31:17;15.90;99.90
55830;DHT22;41759;53.330;6.002;2024-03-29T10:33:43;16.20;99.90
55830;DHT22;41759;53.330;6.002;2024-03-29T10:36:14;16.20;99.90
55830;DHT22;41759;53.330;6.002;2024-03-29T10:38:40;16.00;99.90
55830;DHT22;41759;53.330;6.002;2024-03-29T10:41:06;16.00;99.90
55830;DHT22;41759;53.330;6.002;2024-03-29T10:43:33;16.40;99.90
55830;DHT22;41759;53.330;6.002;2024-03-29T10:46:02;16.40;99.90
55830;DHT22;41759;53.330;6.002;2024-03-29T10:48:30;16.40;99.90
55830;DHT22;41759;53.330;6.002;2024-03-29T10:50:58;16.50;99.90
55830;DHT22;41759;53.330;6.002;2024-03-29T10:53:27;16.60;99.90
55830;DHT22;41759;53.330;6.002;2024-03-29T10:55:59;16.40;99.90
55830;DHT22;41759;53.330;6.002;2024-03-29T10:58:30;16.10;99.90
55830;DHT22;41759;53.330;6.002;2024-03-29T11:01:01;15.70;99.90
55830;DHT22;41759;53.330;6.002;2024-03-29T11:03:37;15.50;99.90
55830;DHT22;41759;53.330;6.002;2024-03-29T11:06:05;15.30;99.90
55830;DHT22;41759;53.330;6.002;2024-03-29T11:08:36;15.20;99.90
55830;DHT22;41759;53.330;6.002;2024-03-29T11:11:09;15.10;99.90
55830;DHT22;41759;53.330;6.002;2024-03-29T11:14:01;15.00;99.90
55830;DHT22;41759;53.330;6.002;2024-03-29T11:16:28;14.90;99.90
55830;DHT22;41759;53.330;6.002;2024-03-29T11:18:54;14.80;99.90
55830;DHT22;41759;53.330;6.002;2024-03-29T11:21:20;14.80;99.90
55830;DHT22;41759;53.330;6.002;2024-03-29T11:23:51;14.90;99.90
55830;DHT22;41759;53.330;6.002;2024-03-29T11:26:18;14.90;99.90
55830;DHT22;41759;53.330;6.002;2024-03-29T11:28:52;15.00;99.90
55830;DHT22;41759;53.330;6.002;2024-03-29T11:31:22;15.10;99.90
55830;DHT22;41759;53.330;6.002;2024-03-29T11:33:48;15.10;99.90
55830;DHT22;41759;53.330;6.002;2024-03-29T11:36:30;15.00;99.90
55830;DHT22;41759;53.330;6.002;2024-03-29T11:38:57;14.90;99.90
55830;DHT22;41759;53.330;6.002;2024-03-29T11:41:25;14.70;99.90
55830;DHT22;41759;53.330;6.002;2024-03-29T11:43:53;14.50;99.90
55830;DHT22;41759;53.330;6.002;2024-03-29T11:46:19;14.20;99.90
55830;DHT22;41759;53.330;6.002;2024-03-29T11:48:45;14.00;99.90
55830;DHT22;41759;53.330;6.002;2024-03-29T11:51:13;13.90;99.90
55830;DHT22;41759;53.330;6.002;2024-03-29T11:53:42;13.70;99.90
55830;DHT22;41759;53.330;6.002;2024-03-29T11:56:09;13.50;99.90
55830;DHT22;41759;53.330;6.002;2024-03-29T11:58:37;13.50;99.90
55830;DHT22;41759;53.330;6.002;2024-03-29T12:01:04;13.50;99.90
55830;DHT22;41759;53.330;6.002;2024-03-29T12:03:31;13.50;99.90
55830;DHT22;41759;53.330;6.002;2024-03-29T12:05:58;13.60;99.90
55830;DHT22;41759;53.330;6.002;2024-03-29T12:08:31;13.80;99.90
55830;DHT22;41759;53.330;6.002;2024-03-29T12:10:58;13.90;99.90
55830;DHT22;41759;53.330;6.002;2024-03-29T12:13:24;14.00;99.90
55830;DHT22;41759;53.330;6.002;2024-03-29T12:15:50;14.20;99.90
55830;DHT22;41759;53.330;6.002;2024-03-29T12:18:19;14.20;99.90
55830;DHT22;41759;53.330;6.002;2024-03-29T12:20:47;14.30;99.90
55830;DHT22;41759;53.330;6.002;2024-03-29T12:23:16;14.40;99.90
55830;DHT22;41759;53.330;6.002;2024-03-29T12:25:42;14.40;99.90
55830;DHT22;41759;53.330;6.002;2024-03-29T12:28:10;14.40;99.90
55830;DHT22;41759;53.330;6.002;2024-03-29T12:30:37;14.50;99.90
55830;DHT22;41759;53.330;6.002;2024-03-29T12:33:05;14.60;99.90
55830;DHT22;41759;53.330;6.002;2024-03-29T12:35:33;14.70;99.90
55830;DHT22;41759;53.330;6.002;2024-03-29T12:38:00;14.70;99.90
55830;DHT22;41759;53.330;6.002;2024-03-29T12:40:27;14.70;99.90
55830;DHT22;41759;53.330;6.002;2024-03-29T12:42:56;14.70;99.90
55830;DHT22;41759;53.330;6.002;2024-03-29T12:45:23;14.70;99.90
55830;DHT22;41759;53.330;6.002;2024-03-29T12:47:49;14.80;99.90
55830;DHT22;41759;53.330;6.002;2024-03-29T12:50:25;14.80;99.90
55830;DHT22;41759;53.330;6.002;2024-03-29T12:52:54;14.80;99.90
55830;DHT22;41759;53.330;6.002;2024-03-29T12:55:20;14.80;99.90
55830;DHT22;41759;53.330;6.002;2024-03-29T12:57:46;14.80;99.90
55830;DHT22;41759;53.330;6.002;2024-03-29T13:00:12;14.70;99.90
55830;DHT22;41759;53.330;6.002;2024-03-29T13:02:38;14.70;99.90
55830;DHT22;41759;53.330;6.002;2024-03-29T13:05:04;14.70;99.90
55830;DHT22;41759;53.330;6.002;2024-03-29T13:07:31;14.70;99.90
55830;DHT22;41759;53.330;6.002;2024-03-29T13:09:57;14.70;99.90
55830;DHT22;41759;53.330;6.002;2024-03-29T13:12:31;14.80;99.90
55830;DHT22;41759;53.330;6.002;2024-03-29T13:15:01;14.90;99.90
55830;DHT22;41759;53.330;6.002;2024-03-29T13:17:29;15.00;99.90
55830;DHT22;41759;53.330;6.002;2024-03-29T13:19:55;15.00;99.90
55830;DHT22;41759;53.330;6.002;2024-03-29T13:22:21;15.10;99.90
55830;DHT22;41759;53.330;6.002;2024-03-29T13:24:46;16.40;99.90
55830;DHT22;41759;53.330;6.002;2024-03-29T13:27:12;15.00;99.90
55830;DHT22;41759;53.330;6.002;2024-03-29T13:29:39;15.00;99.90
55830;DHT22;41759;53.330;6.002;2024-03-29T13:32:05;15.00;99.90
55830;DHT22;41759;53.330;6.002;2024-03-29T13:34:31;15.10;99.90
55830;DHT22;41759;53.330;6.002;2024-03-29T13:36:56;15.10;99.90
55830;DHT22;41759;53.330;6.002;2024-03-29T13:39:22;15.10;99.90
55830;DHT22;41759;53.330;6.002;2024-03-29T13:41:49;15.00;99.90
55830;DHT22;41759;53.330;6.002;2024-03-29T13:44:16;14.90;99.90
55830;DHT22;41759;53.330;6.002;2024-03-29T13:46:43;14.90;99.90
55830;DHT22;41759;53.330;6.002;2024-03-29T13:49:09;14.90;99.90
55830;DHT22;41759;53.330;6.002;2024-03-29T13:51:35;14.80;99.90
55830;DHT22;41759;53.330;6.002;2024-03-29T13:54:01;14.90;99.90
55830;DHT22;41759;53.330;6.002;2024-03-29T13:56:27;14.90;99.90
55830;DHT22;41759;53.330;6.002;2024-03-29T13:58:53;14.90;99.90
55830;DHT22;41759;53.330;6.002;2024-03-29T14:01:18;14.80;99.90
55830;DHT22;41759;53.330;6.002;2024-03-29T14:03:44;14.70;99.90
55830;DHT22;41759;53.330;6.002;2024-03-29T14:06:10;14.70;99.90
55830;DHT22;41759;53.330;6.002;2024-03-29T14:08:36;14.70;99.90
55830;DHT22;41759;53.330;6.002;2024-03-29T14:11:02;14.60;99.90
55830;DHT22;41759;53.330;6.002;2024-03-29T14:13:28;14.60;99.90
55830;DHT22;41759;53.330;6.002;2024-03-29T14:15:54;14.60;99.90
55830;DHT22;41759;53.330;6.002;2024-03-29T14:18:20;14.60;99.90
55830;DHT22;41759;53.330;6.002;2024-03-29T14:20:46;14.60;99.90
55830;DHT22;41759;53.330;6.002;2024-03-29T14:23:12;14.50;99.90
55830;DHT22;41759;53.330;6.002;2024-03-29T14:25:40;14.50;99.90
55830;DHT22;41759;53.330;6.002;2024-03-29T14:28:06;14.40;99.90
55830;DHT22;41759;53.330;6.002;2024-03-29T14:30:32;14.40;99.90
55830;DHT22;41759;53.330;6.002;2024-03-29T14:32:58;14.50;99.90
55830;DHT22;41759;53.330;6.002;2024-03-29T14:35:31;14.50;99.90
55830;DHT22;41759;53.330;6.002;2024-03-29T14:37:56;14.60;99.90
55830;DHT22;41759;53.330;6.002;2024-03-29T14:40:22;14.60;99.90
55830;DHT22;41759;53.330;6.002;2024-03-29T14:42:48;14.60;99.90
55830;DHT22;41759;53.330;6.002;2024-03-29T14:45:14;14.60;99.90
55830;DHT22;41759;53.330;6.002;2024-03-29T14:47:39;14.70;99.90
55830;DHT22;41759;53.330;6.002;2024-03-29T14:50:06;14.70;99.90
55830;DHT22;41759;53.330;6.002;2024-03-29T14:52:37;14.80;99.90
55830;DHT22;41759;53.330;6.002;2024-03-29T14:55:03;14.80;99.90
55830;DHT22;41759;53.330;6.002;2024-03-29T14:57:30;14.80;99.90
55830;DHT22;41759;53.330;6.002;2024-03-29T14:59:56;14.90;99.90
55830;DHT22;41759;53.330;6.002;2024-03-29T15:02:21;14.90;99.90
55830;DHT22;41759;53.330;6.002;2024-03-29T15:04:47;14.90;99.90
55830;DHT22;41759;53.330;6.002;2024-03-29T15:07:13;15.00;99.90
55830;DHT22;41759;53.330;6.002;2024-03-29T15:09:39;14.90;99.90
55830;DHT22;41759;53.330;6.002;2024-03-29T15:12:04;14.80;99.90
55830;DHT22;41759;53.330;6.002;2024-03-29T15:14:31;14.60;99.90
55830;DHT22;41759;53.330;6.002;2024-03-29T15:16:56;14.40;99.90
55830;DHT22;41759;53.330;6.002;2024-03-29T15:19:23;14.40;99.90
55830;DHT22;41759;53.330;6.002;2024-03-29T15:21:48;14.40;99.90
55830;DHT22;41759;53.330;6.002;2024-03-29T15:24:15;14.40;99.90
55830;DHT22;41759;53.330;6.002;2024-03-29T15:26:41;14.40;99.90
55830;DHT22;41759;53.330;6.002;2024-03-29T15:29:07;14.40;99.90
55830;DHT22;41759;53.330;6.002;2024-03-29T15:31:39;14.40;99.90
55830;DHT22;41759;53.330;6.002;2024-03-29T15:34:07;14.40;99.90
55830;DHT22;41759;53.330;6.002;2024-03-29T15:36:33;14.30;99.90
55830;DHT22;41759;53.330;6.002;2024-03-29T15:39:00;14.20;99.90